sensor_id;sensor_type;location;lat;lon;timestamp;P1;durP1;ratioP1;P2;durP2;ratioP2
32918;SDS011;19280;42.646;21.150;2023-02-28T00:01:12;89.05;;;34.13;;
32918;SDS011;19280;42.646;21.150;2023-02-28T00:03:38;86.15;;;35.67;;
32918;SDS011;19280;42.646;21.150;2023-02-28T00:06:04;94.53;;;33.75;;
32918;SDS011;19280;42.646;21.150;2023-02-28T00:08:31;98.03;;;36.28;;
32918;SDS011;19280;42.646;21.150;2023-02-28T00:11:00;89.03;;;34.85;;
32918;SDS011;19280;42.646;21.150;2023-02-28T00:13:26;96.75;;;35.20;;
32918;SDS011;19280;42.646;21.150;2023-02-28T00:16:02;91.75;;;35.95;;
32918;SDS011;19280;42.646;21.150;2023-02-28T00:18:29;91.82;;;35.25;;
32918;SDS011;19280;42.646;21.150;2023-02-28T00:20:55;94.13;;;36.08;;
32918;SDS011;19280;42.646;21.150;2023-02-28T00:23:21;121.03;;;38.53;;
32918;SDS011;19280;42.646;21.150;2023-02-28T00:25:47;95.85;;;37.00;;
32918;SDS011;19280;42.646;21.150;2023-02-28T00:28:13;103.55;;;37.78;;
32918;SDS011;19280;42.646;21.150;2023-02-28T00:30:39;93.75;;;36.08;;
32918;SDS011;19280;42.646;21.150;2023-02-28T00:33:05;113.22;;;38.35;;
32918;SDS011;19280;42.646;21.150;2023-02-28T00:35:31;110.50;;;41.13;;
32918;SDS011;19280;42.646;21.150;2023-02-28T00:37:57;103.10;;;38.40;;
32918;SDS011;19280;42.646;21.150;2023-02-28T00:40:23;110.88;;;36.63;;
32918;SDS011;19280;42.646;21.150;2023-02-28T00:42:49;108.18;;;36.40;;
32918;SDS011;19280;42.646;21.150;2023-02-28T00:45:15;98.20;;;38.05;;
32918;SDS011;19280;42.646;21.150;2023-02-28T00:47:41;98.90;;;36.22;;
32918;SDS011;19280;42.646;21.150;2023-02-28T00:50:08;98.07;;;37.60;;
32918;SDS011;19280;42.646;21.150;2023-02-28T00:52:34;100.53;;;37.80;;
32918;SDS011;19280;42.646;21.150;2023-02-28T00:55:00;84.57;;;33.72;;
32918;SDS011;19280;42.646;21.150;2023-02-28T00:57:26;84.18;;;33.90;;
32918;SDS011;19280;42.646;21.150;2023-02-28T00:59:52;104.70;;;35.78;;
32918;SDS011;19280;42.646;21.150;2023-02-28T01:02:19;105.13;;;36.33;;
32918;SDS011;19280;42.646;21.150;2023-02-28T01:04:46;119.43;;;38.47;;
32918;SDS011;19280;42.646;21.150;2023-02-28T01:07:12;124.10;;;40.95;;
32918;SDS011;19280;42.646;21.150;2023-02-28T01:09:39;122.22;;;39.03;;
32918;SDS011;19280;42.646;21.150;2023-02-28T01:12:06;119.53;;;37.20;;
32918;SDS011;19280;42.646;21.150;2023-02-28T01:14:32;144.07;;;42.90;;
32918;SDS011;19280;42.646;21.150;2023-02-28T01:16:59;160.20;;;48.70;;
32918;SDS011;19280;42.646;21.150;2023-02-28T01:19:25;160.43;;;50.13;;
32918;SDS011;19280;42.646;21.150;2023-02-28T01:21:51;147.98;;;48.38;;
32918;SDS011;19280;42.646;21.150;2023-02-28T01:24:17;159.90;;;48.38;;
32918;SDS011;19280;42.646;21.150;2023-02-28T01:26:44;154.18;;;51.90;;
32918;SDS011;19280;42.646;21.150;2023-02-28T01:29:10;155.20;;;52.45;;
32918;SDS011;19280;42.646;21.150;2023-02-28T01:31:36;169.20;;;54.55;;
32918;SDS011;19280;42.646;21.150;2023-02-28T01:34:02;163.40;;;54.25;;
32918;SDS011;19280;42.646;21.150;2023-02-28T01:36:28;151.48;;;50.65;;
32918;SDS011;19280;42.646;21.150;2023-02-28T01:38:54;147.05;;;50.30;;
32918;SDS011;19280;42.646;21.150;2023-02-28T01:41:24;144.60;;;50.42;;
32918;SDS011;19280;42.646;21.150;2023-02-28T01:44:02;141.35;;;49.65;;
32918;SDS011;19280;42.646;21.150;2023-02-28T01:46:29;147.23;;;47.63;;
32918;SDS011;19280;42.646;21.150;2023-02-28T01:49:06;137.38;;;48.28;;
32918;SDS011;19280;42.646;21.150;2023-02-28T01:51:35;135.23;;;47.72;;
32918;SDS011;19280;42.646;21.150;2023-02-28T01:54:05;136.45;;;48.13;;
32918;SDS011;19280;42.646;21.150;2023-02-28T01:56:38;124.95;;;44.28;;
32918;SDS011;19280;42.646;21.150;2023-02-28T01:59:07;126.15;;;41.10;;
32918;SDS011;19280;42.646;21.150;2023-02-28T02:01:33;110.07;;;39.30;;
32918;SDS011;19280;42.646;21.150;2023-02-28T02:04:00;121.85;;;41.13;;
32918;SDS011;19280;42.646;21.150;2023-02-28T02:06:31;119.20;;;40.53;;
32918;SDS011;19280;42.646;21.150;2023-02-28T02:11:25;108.90;;;39.58;;
32918;SDS011;19280;42.646;21.150;2023-02-28T02:18:53;117.20;;;41.25;;
32918;SDS011;19280;42.646;21.150;2023-02-28T02:26:49;104.72;;;39.40;;
32918;SDS011;19280;42.646;21.150;2023-02-28T02:37:42;79.07;;;34.90;;
32918;SDS011;19280;42.646;21.150;2023-02-28T02:42:35;88.90;;;35.50;;
32918;SDS011;19280;42.646;21.150;2023-02-28T02:45:07;92.53;;;36.17;;
32918;SDS011;19280;42.646;21.150;2023-02-28T02:47:34;97.43;;;35.92;;
32918;SDS011;19280;42.646;21.150;2023-02-28T02:50:02;86.38;;;35.97;;
32918;SDS011;19280;42.646;21.150;2023-02-28T02:52:32;80.13;;;34.20;;
32918;SDS011;19280;42.646;21.150;2023-02-28T02:54:59;86.93;;;35.03;;
32918;SDS011;19280;42.646;21.150;2023-02-28T02:59:58;87.05;;;34.88;;
32918;SDS011;19280;42.646;21.150;2023-02-28T03:02:24;82.22;;;35.38;;
32918;SDS011;19280;42.646;21.150;2023-02-28T03:04:52;88.75;;;35.00;;
32918;SDS011;19280;42.646;21.150;2023-02-28T03:07:19;96.80;;;37.38;;
32918;SDS011;19280;42.646;21.150;2023-02-28T03:09:54;82.65;;;35.78;;
32918;SDS011;19280;42.646;21.150;2023-02-28T03:12:21;81.32;;;34.90;;
32918;SDS011;19280;42.646;21.150;2023-02-28T03:15:04;83.38;;;35.78;;
32918;SDS011;19280;42.646;21.150;2023-02-28T03:17:37;83.18;;;35.33;;
32918;SDS011;19280;42.646;21.150;2023-02-28T03:20:11;87.63;;;37.22;;
32918;SDS011;19280;42.646;21.150;2023-02-28T03:23:02;87.95;;;36.70;;
32918;SDS011;19280;42.646;21.150;2023-02-28T03:25:43;80.05;;;34.00;;
32918;SDS011;19280;42.646;21.150;2023-02-28T03:33:34;79.30;;;34.40;;
32918;SDS011;19280;42.646;21.150;2023-02-28T03:36:12;70.13;;;31.08;;
32918;SDS011;19280;42.646;21.150;2023-02-28T03:38:46;74.38;;;32.28;;
32918;SDS011;19280;42.646;21.150;2023-02-28T03:41:16;74.80;;;33.45;;
32918;SDS011;19280;42.646;21.150;2023-02-28T03:43:45;71.50;;;33.05;;
32918;SDS011;19280;42.646;21.150;2023-02-28T03:46:14;80.45;;;34.05;;
32918;SDS011;19280;42.646;21.150;2023-02-28T03:48:42;77.30;;;35.15;;
32918;SDS011;19280;42.646;21.150;2023-02-28T03:51:10;74.28;;;33.85;;
32918;SDS011;19280;42.646;21.150;2023-02-28T03:53:39;70.47;;;31.08;;
32918;SDS011;19280;42.646;21.150;2023-02-28T03:56:12;69.72;;;31.70;;
32918;SDS011;19280;42.646;21.150;2023-02-28T03:58:47;71.18;;;30.33;;
32918;SDS011;19280;42.646;21.150;2023-02-28T04:01:15;66.40;;;31.23;;
32918;SDS011;19280;42.646;21.150;2023-02-28T04:03:43;66.75;;;30.73;;
32918;SDS011;19280;42.646;21.150;2023-02-28T04:06:13;66.30;;;31.17;;
32918;SDS011;19280;42.646;21.150;2023-02-28T04:08:40;64.50;;;30.23;;
32918;SDS011;19280;42.646;21.150;2023-02-28T04:11:06;66.85;;;29.90;;
32918;SDS011;19280;42.646;21.150;2023-02-28T04:13:34;65.78;;;29.52;;
32918;SDS011;19280;42.646;21.150;2023-02-28T04:16:00;60.00;;;28.85;;
32918;SDS011;19280;42.646;21.150;2023-02-28T04:18:26;65.72;;;30.77;;
32918;SDS011;19280;42.646;21.150;2023-02-28T04:20:52;64.60;;;29.85;;
32918;SDS011;19280;42.646;21.150;2023-02-28T04:23:18;66.68;;;31.00;;
32918;SDS011;19280;42.646;21.150;2023-02-28T04:25:44;66.00;;;29.58;;
32918;SDS011;19280;42.646;21.150;2023-02-28T04:28:10;69.68;;;30.42;;
32918;SDS011;19280;42.646;21.150;2023-02-28T04:30:37;69.20;;;30.80;;
32918;SDS011;19280;42.646;21.150;2023-02-28T04:33:04;64.47;;;30.83;;
32918;SDS011;19280;42.646;21.150;2023-02-28T04:35:30;70.78;;;30.48;;
32918;SDS011;19280;42.646;21.150;2023-02-28T04:37:56;62.83;;;28.60;;
32918;SDS011;19280;42.646;21.150;2023-02-28T04:40:22;69.18;;;30.85;;
32918;SDS011;19280;42.646;21.150;2023-02-28T04:42:48;69.60;;;32.08;;
32918;SDS011;19280;42.646;21.150;2023-02-28T04:45:14;70.65;;;31.08;;
32918;SDS011;19280;42.646;21.150;2023-02-28T04:47:42;71.97;;;30.05;;
32918;SDS011;19280;42.646;21.150;2023-02-28T04:50:08;67.22;;;30.75;;
32918;SDS011;19280;42.646;21.150;2023-02-28T04:52:34;64.25;;;29.80;;
32918;SDS011;19280;42.646;21.150;2023-02-28T04:55:00;68.43;;;30.20;;
32918;SDS011;19280;42.646;21.150;2023-02-28T04:57:26;70.10;;;31.08;;
32918;SDS011;19280;42.646;21.150;2023-02-28T04:59:52;63.42;;;29.17;;
32918;SDS011;19280;42.646;21.150;2023-02-28T05:02:18;70.90;;;30.92;;
32918;SDS011;19280;42.646;21.150;2023-02-28T05:04:46;70.18;;;32.40;;
32918;SDS011;19280;42.646;21.150;2023-02-28T05:07:12;74.13;;;32.90;;
32918;SDS011;19280;42.646;21.150;2023-02-28T05:09:38;61.13;;;29.75;;
32918;SDS011;19280;42.646;21.150;2023-02-28T05:12:04;60.17;;;28.63;;
32918;SDS011;19280;42.646;21.150;2023-02-28T05:14:30;60.92;;;28.70;;
32918;SDS011;19280;42.646;21.150;2023-02-28T05:16:56;56.33;;;26.88;;
32918;SDS011;19280;42.646;21.150;2023-02-28T05:19:22;59.67;;;28.02;;
32918;SDS011;19280;42.646;21.150;2023-02-28T05:21:52;64.50;;;28.65;;
32918;SDS011;19280;42.646;21.150;2023-02-28T05:24:19;62.33;;;28.70;;
32918;SDS011;19280;42.646;21.150;2023-02-28T05:26:48;64.47;;;29.35;;
32918;SDS011;19280;42.646;21.150;2023-02-28T05:29:15;51.08;;;22.30;;
32918;SDS011;19280;42.646;21.150;2023-02-28T05:31:41;51.78;;;23.70;;
32918;SDS011;19280;42.646;21.150;2023-02-28T05:34:07;47.08;;;24.38;;
32918;SDS011;19280;42.646;21.150;2023-02-28T05:36:36;49.28;;;21.83;;
32918;SDS011;19280;42.646;21.150;2023-02-28T05:39:02;51.22;;;23.60;;
32918;SDS011;19280;42.646;21.150;2023-02-28T05:41:29;54.78;;;24.40;;
32918;SDS011;19280;42.646;21.150;2023-02-28T05:43:55;61.22;;;26.70;;
32918;SDS011;19280;42.646;21.150;2023-02-28T05:46:23;57.05;;;26.08;;
32918;SDS011;19280;42.646;21.150;2023-02-28T05:48:49;62.97;;;25.80;;
32918;SDS011;19280;42.646;21.150;2023-02-28T05:51:16;47.05;;;23.77;;
32918;SDS011;19280;42.646;21.150;2023-02-28T05:53:42;52.30;;;25.13;;
32918;SDS011;19280;42.646;21.150;2023-02-28T05:56:08;62.15;;;25.05;;
32918;SDS011;19280;42.646;21.150;2023-02-28T05:58:34;48.15;;;23.83;;
32918;SDS011;19280;42.646;21.150;2023-02-28T06:01:18;66.90;;;25.65;;
32918;SDS011;19280;42.646;21.150;2023-02-28T06:03:44;60.92;;;26.00;;
32918;SDS011;19280;42.646;21.150;2023-02-28T06:06:15;55.78;;;26.05;;
32918;SDS011;19280;42.646;21.150;2023-02-28T06:08:41;62.30;;;28.25;;
32918;SDS011;19280;42.646;21.150;2023-02-28T06:11:09;71.40;;;26.10;;
32918;SDS011;19280;42.646;21.150;2023-02-28T06:13:36;52.33;;;24.70;;
32918;SDS011;19280;42.646;21.150;2023-02-28T06:16:02;62.67;;;26.45;;
32918;SDS011;19280;42.646;21.150;2023-02-28T06:18:28;64.38;;;26.42;;
32918;SDS011;19280;42.646;21.150;2023-02-28T06:20:54;58.85;;;24.65;;
32918;SDS011;19280;42.646;21.150;2023-02-28T06:23:20;66.22;;;27.20;;
32918;SDS011;19280;42.646;21.150;2023-02-28T06:25:47;51.35;;;25.33;;
32918;SDS011;19280;42.646;21.150;2023-02-28T06:28:14;62.28;;;25.33;;
32918;SDS011;19280;42.646;21.150;2023-02-28T06:30:40;63.60;;;26.23;;
32918;SDS011;19280;42.646;21.150;2023-02-28T06:33:06;73.03;;;26.65;;
32918;SDS011;19280;42.646;21.150;2023-02-28T06:35:32;72.57;;;25.58;;
32918;SDS011;19280;42.646;21.150;2023-02-28T06:37:58;76.82;;;29.85;;
32918;SDS011;19280;42.646;21.150;2023-02-28T06:40:24;76.82;;;28.73;;
32918;SDS011;19280;42.646;21.150;2023-02-28T06:42:50;80.57;;;29.45;;
32918;SDS011;19280;42.646;21.150;2023-02-28T06:45:16;76.63;;;30.35;;
32918;SDS011;19280;42.646;21.150;2023-02-28T06:47:42;79.35;;;29.52;;
32918;SDS011;19280;42.646;21.150;2023-02-28T06:50:12;69.15;;;28.52;;
32918;SDS011;19280;42.646;21.150;2023-02-28T06:52:38;70.20;;;29.05;;
32918;SDS011;19280;42.646;21.150;2023-02-28T06:55:07;85.32;;;28.65;;
32918;SDS011;19280;42.646;21.150;2023-02-28T06:57:34;78.00;;;28.35;;
32918;SDS011;19280;42.646;21.150;2023-02-28T07:00:02;79.03;;;28.95;;
32918;SDS011;19280;42.646;21.150;2023-02-28T07:02:29;77.53;;;28.35;;
32918;SDS011;19280;42.646;21.150;2023-02-28T07:04:56;77.75;;;27.52;;
32918;SDS011;19280;42.646;21.150;2023-02-28T07:07:22;93.47;;;28.90;;
32918;SDS011;19280;42.646;21.150;2023-02-28T07:09:48;76.75;;;31.20;;
32918;SDS011;19280;42.646;21.150;2023-02-28T07:12:14;77.82;;;33.17;;
32918;SDS011;19280;42.646;21.150;2023-02-28T07:14:40;74.72;;;33.00;;
32918;SDS011;19280;42.646;21.150;2023-02-28T07:17:07;80.30;;;32.22;;
32918;SDS011;19280;42.646;21.150;2023-02-28T07:19:33;92.13;;;36.65;;
32918;SDS011;19280;42.646;21.150;2023-02-28T07:21:59;83.35;;;33.80;;
32918;SDS011;19280;42.646;21.150;2023-02-28T07:24:27;93.63;;;41.63;;
32918;SDS011;19280;42.646;21.150;2023-02-28T07:26:54;89.40;;;40.08;;
32918;SDS011;19280;42.646;21.150;2023-02-28T07:29:20;107.50;;;42.15;;
32918;SDS011;19280;42.646;21.150;2023-02-28T07:31:46;105.38;;;42.83;;
32918;SDS011;19280;42.646;21.150;2023-02-28T07:34:13;137.45;;;62.97;;
32918;SDS011;19280;42.646;21.150;2023-02-28T07:36:39;144.85;;;67.63;;
32918;SDS011;19280;42.646;21.150;2023-02-28T07:39:05;131.82;;;53.30;;
32918;SDS011;19280;42.646;21.150;2023-02-28T07:41:31;119.95;;;52.35;;
32918;SDS011;19280;42.646;21.150;2023-02-28T07:43:59;107.63;;;47.83;;
32918;SDS011;19280;42.646;21.150;2023-02-28T07:46:25;102.55;;;43.15;;
32918;SDS011;19280;42.646;21.150;2023-02-28T07:48:53;94.82;;;37.80;;
32918;SDS011;19280;42.646;21.150;2023-02-28T07:51:20;92.35;;;36.38;;
32918;SDS011;19280;42.646;21.150;2023-02-28T07:53:46;97.43;;;35.42;;
32918;SDS011;19280;42.646;21.150;2023-02-28T07:56:12;89.28;;;37.42;;
32918;SDS011;19280;42.646;21.150;2023-02-28T07:58:38;97.95;;;39.00;;
32918;SDS011;19280;42.646;21.150;2023-02-28T08:01:04;102.03;;;39.05;;
32918;SDS011;19280;42.646;21.150;2023-02-28T08:03:31;85.10;;;35.88;;
32918;SDS011;19280;42.646;21.150;2023-02-28T08:05:57;96.05;;;36.17;;
32918;SDS011;19280;42.646;21.150;2023-02-28T08:08:23;101.15;;;36.55;;
32918;SDS011;19280;42.646;21.150;2023-02-28T08:10:57;92.93;;;38.15;;
32918;SDS011;19280;42.646;21.150;2023-02-28T08:13:23;99.00;;;39.85;;
32918;SDS011;19280;42.646;21.150;2023-02-28T08:15:49;92.22;;;38.40;;
32918;SDS011;19280;42.646;21.150;2023-02-28T08:18:15;93.00;;;37.28;;
32918;SDS011;19280;42.646;21.150;2023-02-28T08:20:41;102.05;;;40.55;;
32918;SDS011;19280;42.646;21.150;2023-02-28T08:23:07;108.28;;;43.08;;
32918;SDS011;19280;42.646;21.150;2023-02-28T08:25:33;113.00;;;43.35;;
32918;SDS011;19280;42.646;21.150;2023-02-28T08:27:59;104.22;;;42.67;;
32918;SDS011;19280;42.646;21.150;2023-02-28T08:30:25;106.63;;;41.33;;
32918;SDS011;19280;42.646;21.150;2023-02-28T08:32:51;98.07;;;39.13;;
32918;SDS011;19280;42.646;21.150;2023-02-28T08:35:18;92.50;;;39.33;;
32918;SDS011;19280;42.646;21.150;2023-02-28T08:37:44;104.57;;;41.13;;
32918;SDS011;19280;42.646;21.150;2023-02-28T08:40:10;113.55;;;41.00;;
32918;SDS011;19280;42.646;21.150;2023-02-28T08:42:38;112.88;;;42.00;;
32918;SDS011;19280;42.646;21.150;2023-02-28T08:45:04;98.38;;;40.83;;
32918;SDS011;19280;42.646;21.150;2023-02-28T08:47:31;107.72;;;40.67;;
32918;SDS011;19280;42.646;21.150;2023-02-28T08:49:57;103.45;;;41.13;;
32918;SDS011;19280;42.646;21.150;2023-02-28T08:52:23;95.07;;;39.20;;
32918;SDS011;19280;42.646;21.150;2023-02-28T08:54:49;94.38;;;37.65;;
32918;SDS011;19280;42.646;21.150;2023-02-28T08:57:15;89.38;;;35.65;;
32918;SDS011;19280;42.646;21.150;2023-02-28T08:59:41;82.00;;;33.80;;
32918;SDS011;19280;42.646;21.150;2023-02-28T09:02:08;87.22;;;34.50;;
32918;SDS011;19280;42.646;21.150;2023-02-28T09:04:34;81.40;;;35.47;;
32918;SDS011;19280;42.646;21.150;2023-02-28T09:07:00;74.03;;;33.65;;
32918;SDS011;19280;42.646;21.150;2023-02-28T09:09:26;83.35;;;34.45;;
32918;SDS011;19280;42.646;21.150;2023-02-28T09:11:54;78.80;;;32.83;;
32918;SDS011;19280;42.646;21.150;2023-02-28T09:14:20;72.22;;;30.13;;
32918;SDS011;19280;42.646;21.150;2023-02-28T09:16:46;73.70;;;30.40;;
32918;SDS011;19280;42.646;21.150;2023-02-28T09:19:13;69.30;;;29.73;;
32918;SDS011;19280;42.646;21.150;2023-02-28T09:21:39;73.07;;;30.02;;
32918;SDS011;19280;42.646;21.150;2023-02-28T09:24:05;63.28;;;29.25;;
32918;SDS011;19280;42.646;21.150;2023-02-28T09:26:31;65.57;;;27.50;;
32918;SDS011;19280;42.646;21.150;2023-02-28T09:28:59;72.50;;;30.77;;
32918;SDS011;19280;42.646;21.150;2023-02-28T09:31:26;75.53;;;32.05;;
32918;SDS011;19280;42.646;21.150;2023-02-28T09:33:53;79.80;;;29.10;;
32918;SDS011;19280;42.646;21.150;2023-02-28T09:36:20;63.88;;;27.73;;
32918;SDS011;19280;42.646;21.150;2023-02-28T09:38:47;80.57;;;32.38;;
32918;SDS011;19280;42.646;21.150;2023-02-28T09:44:13;76.55;;;31.65;;
32918;SDS011;19280;42.646;21.150;2023-02-28T09:46:43;77.93;;;32.58;;
32918;SDS011;19280;42.646;21.150;2023-02-28T09:49:11;86.15;;;31.77;;
32918;SDS011;19280;42.646;21.150;2023-02-28T09:54:22;86.28;;;35.92;;
32918;SDS011;19280;42.646;21.150;2023-02-28T09:56:56;83.35;;;34.65;;
32918;SDS011;19280;42.646;21.150;2023-02-28T10:07:10;67.10;;;28.67;;
32918;SDS011;19280;42.646;21.150;2023-02-28T10:09:42;63.03;;;26.65;;
32918;SDS011;19280;42.646;21.150;2023-02-28T10:12:08;57.83;;;25.73;;
32918;SDS011;19280;42.646;21.150;2023-02-28T10:14:35;58.30;;;23.80;;
32918;SDS011;19280;42.646;21.150;2023-02-28T10:17:12;53.95;;;22.73;;
32918;SDS011;19280;42.646;21.150;2023-02-28T10:24:37;57.47;;;22.25;;
32918;SDS011;19280;42.646;21.150;2023-02-28T10:27:18;54.22;;;22.52;;
32918;SDS011;19280;42.646;21.150;2023-02-28T10:29:45;63.90;;;24.38;;
32918;SDS011;19280;42.646;21.150;2023-02-28T10:32:14;49.60;;;22.83;;
32918;SDS011;19280;42.646;21.150;2023-02-28T10:34:41;58.60;;;23.95;;
32918;SDS011;19280;42.646;21.150;2023-02-28T10:37:07;69.60;;;23.63;;
32918;SDS011;19280;42.646;21.150;2023-02-28T10:39:37;52.63;;;23.67;;
32918;SDS011;19280;42.646;21.150;2023-02-28T10:42:03;51.85;;;22.80;;
32918;SDS011;19280;42.646;21.150;2023-02-28T10:44:30;59.80;;;22.73;;
32918;SDS011;19280;42.646;21.150;2023-02-28T10:46:56;60.30;;;23.60;;
32918;SDS011;19280;42.646;21.150;2023-02-28T10:49:23;55.65;;;24.33;;
32918;SDS011;19280;42.646;21.150;2023-02-28T10:51:59;63.72;;;25.80;;
32918;SDS011;19280;42.646;21.150;2023-02-28T10:54:30;61.50;;;24.63;;
32918;SDS011;19280;42.646;21.150;2023-02-28T10:57:12;72.38;;;24.30;;
32918;SDS011;19280;42.646;21.150;2023-02-28T10:59:40;68.15;;;24.35;;
32918;SDS011;19280;42.646;21.150;2023-02-28T11:02:28;66.70;;;25.13;;
32918;SDS011;19280;42.646;21.150;2023-02-28T11:04:52;76.15;;;25.25;;
32918;SDS011;19280;42.646;21.150;2023-02-28T11:07:19;59.35;;;22.65;;
32918;SDS011;19280;42.646;21.150;2023-02-28T11:09:52;59.15;;;23.65;;
32918;SDS011;19280;42.646;21.150;2023-02-28T11:15:04;58.05;;;23.17;;
32918;SDS011;19280;42.646;21.150;2023-02-28T11:17:31;63.67;;;22.92;;
32918;SDS011;19280;42.646;21.150;2023-02-28T11:20:06;56.03;;;22.65;;
32918;SDS011;19280;42.646;21.150;2023-02-28T11:22:35;46.42;;;21.58;;
32918;SDS011;19280;42.646;21.150;2023-02-28T11:25:06;54.72;;;23.08;;
32918;SDS011;19280;42.646;21.150;2023-02-28T11:30:02;54.28;;;23.25;;
32918;SDS011;19280;42.646;21.150;2023-02-28T11:32:29;60.83;;;22.35;;
32918;SDS011;19280;42.646;21.150;2023-02-28T11:37:37;67.70;;;23.13;;
32918;SDS011;19280;42.646;21.150;2023-02-28T11:40:12;59.00;;;23.75;;
32918;SDS011;19280;42.646;21.150;2023-02-28T11:53:00;67.13;;;20.92;;
32918;SDS011;19280;42.646;21.150;2023-02-28T12:06:01;56.55;;;25.33;;
32918;SDS011;19280;42.646;21.150;2023-02-28T12:11:48;54.65;;;23.60;;
32918;SDS011;19280;42.646;21.150;2023-02-28T12:16:20;59.85;;;23.67;;
32918;SDS011;19280;42.646;21.150;2023-02-28T12:21:34;58.10;;;24.40;;
32918;SDS011;19280;42.646;21.150;2023-02-28T12:26:38;68.47;;;26.13;;
32918;SDS011;19280;42.646;21.150;2023-02-28T12:32:06;70.18;;;25.13;;
32918;SDS011;19280;42.646;21.150;2023-02-28T12:34:38;71.13;;;27.02;;
32918;SDS011;19280;42.646;21.150;2023-02-28T12:37:09;70.60;;;25.50;;
32918;SDS011;19280;42.646;21.150;2023-02-28T12:39:38;58.25;;;23.98;;
32918;SDS011;19280;42.646;21.150;2023-02-28T12:42:19;52.42;;;22.75;;
32918;SDS011;19280;42.646;21.150;2023-02-28T12:44:52;71.57;;;24.30;;
32918;SDS011;19280;42.646;21.150;2023-02-28T12:47:19;60.97;;;23.40;;
32918;SDS011;19280;42.646;21.150;2023-02-28T12:49:47;60.63;;;23.33;;
32918;SDS011;19280;42.646;21.150;2023-02-28T12:52:16;59.78;;;22.55;;
32918;SDS011;19280;42.646;21.150;2023-02-28T12:54:51;49.55;;;22.67;;
32918;SDS011;19280;42.646;21.150;2023-02-28T12:57:56;55.42;;;21.23;;
32918;SDS011;19280;42.646;21.150;2023-02-28T13:00:15;59.20;;;20.88;;
32918;SDS011;19280;42.646;21.150;2023-02-28T13:10:40;61.00;;;22.13;;
32918;SDS011;19280;42.646;21.150;2023-02-28T13:13:11;59.17;;;22.60;;
32918;SDS011;19280;42.646;21.150;2023-02-28T13:15:39;59.80;;;22.85;;
32918;SDS011;19280;42.646;21.150;2023-02-28T13:18:24;50.80;;;22.08;;
32918;SDS011;19280;42.646;21.150;2023-02-28T13:20:53;61.58;;;23.33;;
32918;SDS011;19280;42.646;21.150;2023-02-28T13:26:03;58.55;;;26.80;;
32918;SDS011;19280;42.646;21.150;2023-02-28T13:31:14;57.67;;;25.17;;
32918;SDS011;19280;42.646;21.150;2023-02-28T13:46:31;63.95;;;24.63;;
32918;SDS011;19280;42.646;21.150;2023-02-28T13:49:17;60.22;;;23.95;;
32918;SDS011;19280;42.646;21.150;2023-02-28T13:51:44;61.25;;;25.10;;
32918;SDS011;19280;42.646;21.150;2023-02-28T14:02:27;64.72;;;26.35;;
32918;SDS011;19280;42.646;21.150;2023-02-28T14:07:28;53.47;;;23.52;;
32918;SDS011;19280;42.646;21.150;2023-02-28T14:10:00;55.75;;;24.58;;
32918;SDS011;19280;42.646;21.150;2023-02-28T14:15:36;69.60;;;23.88;;
32918;SDS011;19280;42.646;21.150;2023-02-28T14:20:51;52.88;;;26.02;;
32918;SDS011;19280;42.646;21.150;2023-02-28T14:31:17;72.68;;;27.77;;
32918;SDS011;19280;42.646;21.150;2023-02-28T14:36:33;59.25;;;24.77;;
32918;SDS011;19280;42.646;21.150;2023-02-28T14:39:03;70.25;;;25.85;;
32918;SDS011;19280;42.646;21.150;2023-02-28T14:41:34;52.78;;;24.50;;
32918;SDS011;19280;42.646;21.150;2023-02-28T14:44:03;62.42;;;26.35;;
32918;SDS011;19280;42.646;21.150;2023-02-28T14:46:39;60.67;;;25.88;;
32918;SDS011;19280;42.646;21.150;2023-02-28T14:49:05;64.03;;;26.63;;
32918;SDS011;19280;42.646;21.150;2023-02-28T14:51:32;65.90;;;26.27;;
32918;SDS011;19280;42.646;21.150;2023-02-28T14:53:59;56.17;;;25.65;;
32918;SDS011;19280;42.646;21.150;2023-02-28T14:56:32;58.45;;;24.67;;
32918;SDS011;19280;42.646;21.150;2023-02-28T14:58:58;69.63;;;25.17;;
32918;SDS011;19280;42.646;21.150;2023-02-28T15:01:25;68.50;;;27.13;;
32918;SDS011;19280;42.646;21.150;2023-02-28T15:04:03;76.75;;;27.75;;
32918;SDS011;19280;42.646;21.150;2023-02-28T15:06:29;68.80;;;28.92;;
32918;SDS011;19280;42.646;21.150;2023-02-28T15:09:15;66.45;;;26.52;;
32918;SDS011;19280;42.646;21.150;2023-02-28T15:11:44;71.63;;;26.02;;
32918;SDS011;19280;42.646;21.150;2023-02-28T15:14:21;72.30;;;27.52;;
32918;SDS011;19280;42.646;21.150;2023-02-28T15:16:50;69.25;;;26.02;;
32918;SDS011;19280;42.646;21.150;2023-02-28T15:19:19;67.25;;;27.85;;
32918;SDS011;19280;42.646;21.150;2023-02-28T15:21:48;69.50;;;28.15;;
32918;SDS011;19280;42.646;21.150;2023-02-28T15:26:59;70.63;;;28.83;;
32918;SDS011;19280;42.646;21.150;2023-02-28T15:29:27;71.93;;;28.25;;
32918;SDS011;19280;42.646;21.150;2023-02-28T15:31:58;74.25;;;30.05;;
32918;SDS011;19280;42.646;21.150;2023-02-28T15:36:51;65.45;;;28.52;;
32918;SDS011;19280;42.646;21.150;2023-02-28T15:39:19;80.82;;;30.35;;
32918;SDS011;19280;42.646;21.150;2023-02-28T15:41:45;73.32;;;31.40;;
32918;SDS011;19280;42.646;21.150;2023-02-28T15:44:24;80.72;;;29.67;;
32918;SDS011;19280;42.646;21.150;2023-02-28T15:49:26;71.55;;;31.75;;
32918;SDS011;19280;42.646;21.150;2023-02-28T15:51:53;81.93;;;30.77;;
32918;SDS011;19280;42.646;21.150;2023-02-28T15:54:22;66.47;;;28.98;;
32918;SDS011;19280;42.646;21.150;2023-02-28T15:56:50;75.25;;;31.02;;
32918;SDS011;19280;42.646;21.150;2023-02-28T15:59:18;89.90;;;29.88;;
32918;SDS011;19280;42.646;21.150;2023-02-28T16:01:45;76.72;;;31.55;;
32918;SDS011;19280;42.646;21.150;2023-02-28T16:04:18;77.65;;;31.10;;
32918;SDS011;19280;42.646;21.150;2023-02-28T16:06:45;66.95;;;28.00;;
32918;SDS011;19280;42.646;21.150;2023-02-28T16:09:15;66.57;;;28.30;;
32918;SDS011;19280;42.646;21.150;2023-02-28T16:11:50;67.88;;;27.63;;
32918;SDS011;19280;42.646;21.150;2023-02-28T16:14:18;71.93;;;29.30;;
32918;SDS011;19280;42.646;21.150;2023-02-28T16:16:46;64.65;;;27.30;;
32918;SDS011;19280;42.646;21.150;2023-02-28T16:19:13;81.55;;;30.35;;
32918;SDS011;19280;42.646;21.150;2023-02-28T16:21:39;92.13;;;28.95;;
32918;SDS011;19280;42.646;21.150;2023-02-28T16:24:06;74.35;;;27.27;;
32918;SDS011;19280;42.646;21.150;2023-02-28T16:26:32;67.25;;;29.30;;
32918;SDS011;19280;42.646;21.150;2023-02-28T16:28:59;83.80;;;28.38;;
32918;SDS011;19280;42.646;21.150;2023-02-28T16:31:25;71.90;;;27.30;;
32918;SDS011;19280;42.646;21.150;2023-02-28T16:33:52;70.30;;;26.92;;
32918;SDS011;19280;42.646;21.150;2023-02-28T16:36:19;69.50;;;27.45;;
32918;SDS011;19280;42.646;21.150;2023-02-28T16:38:45;70.75;;;25.05;;
32918;SDS011;19280;42.646;21.150;2023-02-28T16:41:12;77.25;;;27.65;;
32918;SDS011;19280;42.646;21.150;2023-02-28T16:43:43;72.95;;;25.73;;
32918;SDS011;19280;42.646;21.150;2023-02-28T16:46:10;71.65;;;27.77;;